createdAt,value
2017-08-27T00:00:15.279Z,18.90
2017-08-27T00:02:42.923Z,18.90
2017-08-27T00:05:10.433Z,18.90
2017-08-27T00:07:38.132Z,18.90
2017-08-27T00:10:06.935Z,18.90
2017-08-27T00:12:34.492Z,18.80
2017-08-27T00:15:02.110Z,18.80
2017-08-27T00:17:30.639Z,18.80
2017-08-27T00:19:58.197Z,18.70
2017-08-27T00:22:25.743Z,18.70
2017-08-27T00:24:53.260Z,18.70
2017-08-27T00:27:20.792Z,18.60
2017-08-27T00:29:51.705Z,18.60
2017-08-27T00:32:20.254Z,18.50
2017-08-27T00:34:48.569Z,18.50
2017-08-27T00:37:16.076Z,18.50
2017-08-27T00:39:43.592Z,18.40
2017-08-27T00:42:11.095Z,18.40
2017-08-27T00:44:39.527Z,18.30
2017-08-27T00:47:10.375Z,18.30
2017-08-27T00:49:37.978Z,18.30
2017-08-27T00:52:05.491Z,18.30
2017-08-27T00:54:32.991Z,18.30
2017-08-27T00:57:00.585Z,18.20
2017-08-27T00:59:29.178Z,18.30
2017-08-27T01:02:01.287Z,18.30
2017-08-27T01:04:29.401Z,18.20
2017-08-27T01:06:56.923Z,18.20
2017-08-27T01:09:24.463Z,18.30
2017-08-27T01:11:52.298Z,18.20
2017-08-27T01:14:19.995Z,18.30
2017-08-27T01:16:54.571Z,18.20
2017-08-27T01:19:22.375Z,18.20
2017-08-27T01:21:49.903Z,18.10
2017-08-27T01:24:17.446Z,18.10
2017-08-27T01:26:45.716Z,18.10
2017-08-27T01:29:14.520Z,18.10
2017-08-27T01:31:42.032Z,18.10
2017-08-27T01:34:09.538Z,18.10
2017-08-27T01:36:37.228Z,18.10
2017-08-27T01:39:04.735Z,18.00
2017-08-27T01:41:33.565Z,18.00
2017-08-27T01:44:01.095Z,18.00
2017-08-27T01:46:32.368Z,18.00
2017-08-27T01:49:00.088Z,18.00
2017-08-27T01:51:27.965Z,18.00
2017-08-27T01:53:55.918Z,17.90
2017-08-27T01:56:23.507Z,17.90
2017-08-27T01:58:51.297Z,17.90
2017-08-27T02:01:18.957Z,17.90
2017-08-27T02:03:47.029Z,17.90
2017-08-27T02:06:14.553Z,17.80
2017-08-27T02:08:42.076Z,17.80
2017-08-27T02:11:10.056Z,17.80
2017-08-27T02:13:37.633Z,17.80
2017-08-27T02:16:09.845Z,17.70
2017-08-27T02:18:37.400Z,17.70
2017-08-27T02:21:05.081Z,17.70
2017-08-27T02:23:32.635Z,17.70
2017-08-27T02:26:01.102Z,17.70
2017-08-27T02:28:28.656Z,17.70
2017-08-27T02:30:56.164Z,17.70
2017-08-27T02:33:31.243Z,17.70
2017-08-27T02:35:58.755Z,17.60
2017-08-27T02:38:26.764Z,17.60
2017-08-27T02:40:54.318Z,17.60
2017-08-27T02:43:22.595Z,17.50
2017-08-27T02:45:51.040Z,17.50
2017-08-27T02:48:19.987Z,17.50
2017-08-27T02:50:47.510Z,17.50
2017-08-27T02:53:15.531Z,17.50
2017-08-27T02:55:43.060Z,17.50
2017-08-27T02:58:10.575Z,17.50
2017-08-27T03:00:38.162Z,17.50
2017-08-27T03:03:05.819Z,17.50
2017-08-27T03:05:33.334Z,17.50
2017-08-27T03:08:00.878Z,17.40
2017-08-27T03:10:29.185Z,17.40
2017-08-27T03:12:56.732Z,17.50
2017-08-27T03:15:24.387Z,17.50
2017-08-27T03:17:55.915Z,17.50
2017-08-27T03:20:24.557Z,17.40
2017-08-27T03:22:52.068Z,17.40
2017-08-27T03:25:19.588Z,17.40
2017-08-27T03:27:48.795Z,17.40
2017-08-27T03:30:16.303Z,17.40
2017-08-27T03:32:43.824Z,17.40
2017-08-27T03:35:11.415Z,17.40
2017-08-27T03:37:40.601Z,17.40
2017-08-27T03:40:08.572Z,17.30
2017-08-27T03:42:36.131Z,17.30
2017-08-27T03:45:03.785Z,17.30
2017-08-27T03:47:31.349Z,17.30
2017-08-27T03:49:58.903Z,17.30
2017-08-27T03:52:27.107Z,17.30
2017-08-27T03:54:54.647Z,17.30
2017-08-27T03:57:22.267Z,17.30
2017-08-27T03:59:49.807Z,17.30
2017-08-27T04:02:17.392Z,17.30
2017-08-27T04:04:44.981Z,17.30
2017-08-27T04:07:12.540Z,17.20
2017-08-27T04:09:41.037Z,17.20
2017-08-27T04:12:08.565Z,17.20
2017-08-27T04:14:36.295Z,17.20
2017-08-27T04:17:03.848Z,17.20
2017-08-27T04:19:31.350Z,17.20
2017-08-27T04:21:59.790Z,17.20
2017-08-27T04:24:27.371Z,17.20
2017-08-27T04:26:55.178Z,17.20
2017-08-27T04:29:23.233Z,17.30
2017-08-27T04:31:51.011Z,17.30
2017-08-27T04:34:18.787Z,17.30
2017-08-27T04:36:49.504Z,17.40
2017-08-27T04:39:17.443Z,17.40
2017-08-27T04:41:45.723Z,17.50
2017-08-27T04:44:14.616Z,17.50
2017-08-27T04:46:42.146Z,17.50
2017-08-27T04:49:10.020Z,17.50
2017-08-27T04:51:40.202Z,17.50
2017-08-27T04:54:08.201Z,17.50
2017-08-27T04:56:35.715Z,17.60
2017-08-27T04:59:03.292Z,17.60
2017-08-27T05:01:30.940Z,17.80
2017-08-27T05:03:58.447Z,17.90
2017-08-27T05:06:25.959Z,18.10
2017-08-27T05:08:53.716Z,18.30
2017-08-27T05:11:21.235Z,18.50
2017-08-27T05:13:48.792Z,18.70
2017-08-27T05:16:17.282Z,18.90
2017-08-27T05:18:44.791Z,19.00
2017-08-27T05:21:12.842Z,19.20
2017-08-27T05:23:40.492Z,19.30
2017-08-27T05:26:08.033Z,19.30
2017-08-27T05:28:36.338Z,19.30
2017-08-27T05:31:03.859Z,19.20
2017-08-27T05:33:33.049Z,19.10
2017-08-27T05:36:03.948Z,19.10
2017-08-27T05:38:31.460Z,19.10
2017-08-27T05:40:59.747Z,19.20
2017-08-27T05:43:27.259Z,19.20
2017-08-27T05:45:54.993Z,19.30
2017-08-27T05:48:23.013Z,19.40
2017-08-27T05:50:50.770Z,19.50
2017-08-27T05:53:18.286Z,19.50
2017-08-27T05:55:45.799Z,19.60
2017-08-27T05:58:13.358Z,19.70
2017-08-27T06:00:40.868Z,19.60
2017-08-27T06:03:08.375Z,19.60
2017-08-27T06:05:38.945Z,19.50
2017-08-27T06:08:06.678Z,19.40
2017-08-27T06:10:35.377Z,19.50
2017-08-27T06:13:02.890Z,19.40
2017-08-27T06:15:30.621Z,19.60
2017-08-27T06:17:59.068Z,19.70
2017-08-27T06:20:26.580Z,19.80
2017-08-27T06:23:00.988Z,19.90
2017-08-27T06:25:28.508Z,20.10
2017-08-27T06:27:56.774Z,20.20
2017-08-27T06:30:24.605Z,20.20
2017-08-27T06:32:52.341Z,20.20
2017-08-27T06:35:19.855Z,20.30
2017-08-27T06:37:49.968Z,20.70
2017-08-27T06:40:17.520Z,20.60
2017-08-27T06:42:45.079Z,21.00
2017-08-27T06:45:13.558Z,21.30
2017-08-27T06:47:41.069Z,21.60
2017-08-27T06:50:08.670Z,21.90
2017-08-27T06:52:36.203Z,21.90
2017-08-27T06:55:03.732Z,21.90
2017-08-27T06:57:31.312Z,22.00
2017-08-27T06:59:58.827Z,22.00
2017-08-27T07:02:26.372Z,22.00
2017-08-27T07:04:53.911Z,22.10
2017-08-27T07:07:22.261Z,22.30
2017-08-27T07:09:49.815Z,22.60
2017-08-27T07:12:17.336Z,22.90
2017-08-27T07:14:44.889Z,23.10
2017-08-27T07:17:12.434Z,23.30
2017-08-27T07:19:40.007Z,23.30
2017-08-27T07:22:10.693Z,23.40
2017-08-27T07:24:38.355Z,23.40
2017-08-27T07:27:06.095Z,23.50
2017-08-27T07:29:33.609Z,23.50
2017-08-27T07:32:01.124Z,23.50
2017-08-27T07:34:28.671Z,23.80
2017-08-27T07:37:00.343Z,23.30
2017-08-27T07:39:35.145Z,23.30
2017-08-27T07:42:02.671Z,23.10
2017-08-27T07:44:30.200Z,22.80
2017-08-27T07:46:57.733Z,22.70
2017-08-27T07:49:25.954Z,22.70
2017-08-27T07:51:53.461Z,22.90
2017-08-27T07:54:21.779Z,23.00
2017-08-27T07:56:49.292Z,22.80
2017-08-27T07:59:17.583Z,22.30
2017-08-27T08:01:45.412Z,22.30
2017-08-27T08:04:12.951Z,22.30
2017-08-27T08:06:44.485Z,22.40
2017-08-27T08:09:11.986Z,22.60
2017-08-27T08:11:40.519Z,22.80
2017-08-27T08:14:08.029Z,22.90
2017-08-27T08:16:35.935Z,23.10
2017-08-27T08:19:03.704Z,23.00
2017-08-27T08:21:31.785Z,23.00
2017-08-27T08:23:59.547Z,23.00
2017-08-27T08:26:27.259Z,23.10
2017-08-27T08:28:54.811Z,23.40
2017-08-27T08:31:22.632Z,23.80
2017-08-27T08:33:50.164Z,24.00
2017-08-27T08:36:17.814Z,24.20
2017-08-27T08:38:46.088Z,24.60
2017-08-27T08:41:13.811Z,24.60
2017-08-27T08:43:41.373Z,24.90
2017-08-27T08:46:08.890Z,25.20
2017-08-27T08:48:36.435Z,25.30
2017-08-27T08:51:03.960Z,25.50
2017-08-27T08:53:36.212Z,25.70
2017-08-27T08:56:03.855Z,25.70
2017-08-27T08:58:31.387Z,25.90
2017-08-27T09:00:59.669Z,25.80
2017-08-27T09:03:28.057Z,25.80
2017-08-27T09:05:55.707Z,25.80
2017-08-27T09:08:27.913Z,25.60
2017-08-27T09:10:55.439Z,25.10
2017-08-27T09:13:23.739Z,25.10
2017-08-27T09:15:51.251Z,25.10
2017-08-27T09:18:18.787Z,25.00
2017-08-27T09:20:47.341Z,25.00
2017-08-27T09:23:18.343Z,25.00
2017-08-27T09:25:46.197Z,25.00
2017-08-27T09:28:13.709Z,25.50
2017-08-27T09:30:42.151Z,25.80
2017-08-27T09:33:09.668Z,25.80
2017-08-27T09:35:37.213Z,25.90
2017-08-27T09:38:04.734Z,25.90
2017-08-27T09:40:32.438Z,25.80
2017-08-27T09:43:03.662Z,25.80
2017-08-27T09:45:31.683Z,25.80
2017-08-27T09:47:59.319Z,25.80
2017-08-27T09:50:26.977Z,25.60
2017-08-27T09:52:54.711Z,25.60
2017-08-27T09:55:22.283Z,25.50
2017-08-27T09:57:50.588Z,25.30
2017-08-27T10:00:18.147Z,25.30
2017-08-27T10:02:45.783Z,25.30
2017-08-27T10:05:13.305Z,25.40
2017-08-27T10:07:41.649Z,25.30
2017-08-27T10:10:10.099Z,25.20
2017-08-27T10:12:37.641Z,25.20
2017-08-27T10:15:05.184Z,25.30
2017-08-27T10:17:32.687Z,25.40
2017-08-27T10:20:00.251Z,25.30
2017-08-27T10:22:27.763Z,25.10
2017-08-27T10:24:55.330Z,25.10
2017-08-27T10:27:23.540Z,25.10
2017-08-27T10:29:51.107Z,25.10
2017-08-27T10:32:18.696Z,25.20
2017-08-27T10:34:46.220Z,25.10
2017-08-27T10:37:13.736Z,25.10
2017-08-27T10:39:45.611Z,25.20
2017-08-27T10:42:17.074Z,25.30
2017-08-27T10:44:44.818Z,25.50
2017-08-27T10:47:12.340Z,25.70
2017-08-27T10:49:39.860Z,26.00
2017-08-27T10:52:07.947Z,26.20
2017-08-27T10:54:35.459Z,26.30
2017-08-27T10:57:02.974Z,26.10
2017-08-27T10:59:30.611Z,26.00
2017-08-27T11:01:58.520Z,26.00
2017-08-27T11:04:26.968Z,25.90
2017-08-27T11:06:54.668Z,25.70
2017-08-27T11:09:22.186Z,25.70
2017-08-27T11:11:53.694Z,25.70
2017-08-27T11:14:21.824Z,25.80
2017-08-27T11:16:49.331Z,25.90
2017-08-27T11:19:16.860Z,25.90
2017-08-27T11:21:44.371Z,26.30
2017-08-27T11:24:12.135Z,26.50
2017-08-27T11:26:39.644Z,26.50
2017-08-27T11:29:07.202Z,26.30
2017-08-27T11:31:35.636Z,26.20
2017-08-27T11:34:03.474Z,26.30
2017-08-27T11:36:31.259Z,26.30
2017-08-27T11:38:58.763Z,26.30
2017-08-27T11:41:26.267Z,26.20
2017-08-27T11:43:54.707Z,26.40
2017-08-27T11:46:22.273Z,26.40
2017-08-27T11:48:49.789Z,26.50
2017-08-27T11:51:17.552Z,26.30
2017-08-27T11:53:45.082Z,26.30
2017-08-27T11:56:12.596Z,26.50
2017-08-27T11:58:41.448Z,26.50
2017-08-27T12:01:09.864Z,26.80
2017-08-27T12:03:37.388Z,27.10
2017-08-27T12:06:05.114Z,26.90
2017-08-27T12:08:33.207Z,26.50
2017-08-27T12:11:02.414Z,26.30
2017-08-27T12:13:29.978Z,26.60
2017-08-27T12:15:58.123Z,26.80
2017-08-27T12:18:25.628Z,26.70
2017-08-27T12:20:53.140Z,26.30
2017-08-27T12:23:20.679Z,26.10
2017-08-27T12:25:48.194Z,26.00
2017-08-27T12:28:19.226Z,26.00
2017-08-27T12:30:47.656Z,26.00
2017-08-27T12:33:15.292Z,26.10
2017-08-27T12:35:43.054Z,26.20
2017-08-27T12:38:10.900Z,26.50
2017-08-27T12:40:38.411Z,26.30
2017-08-27T12:43:14.656Z,26.20
2017-08-27T12:45:43.687Z,26.40
2017-08-27T12:48:11.200Z,26.40
2017-08-27T12:50:38.715Z,26.20
2017-08-27T12:53:07.159Z,26.10
2017-08-27T12:55:35.051Z,26.10
2017-08-27T12:58:02.552Z,26.10
2017-08-27T13:00:30.100Z,25.80
2017-08-27T13:02:57.611Z,25.80
2017-08-27T13:05:25.512Z,25.80
2017-08-27T13:07:53.033Z,25.80
2017-08-27T13:10:21.071Z,25.90
2017-08-27T13:12:52.514Z,26.40
2017-08-27T13:15:20.023Z,26.70
2017-08-27T13:17:47.973Z,27.00
2017-08-27T13:20:16.028Z,26.80
2017-08-27T13:22:43.540Z,27.10
2017-08-27T13:25:11.467Z,27.50
2017-08-27T13:27:39.151Z,27.60
2017-08-27T13:30:07.499Z,28.00
2017-08-27T13:32:35.023Z,28.00
2017-08-27T13:35:02.553Z,28.10
2017-08-27T13:37:31.090Z,27.70
2017-08-27T13:40:00.220Z,27.70
2017-08-27T13:42:27.773Z,27.60
2017-08-27T13:44:55.295Z,27.30
2017-08-27T13:47:23.288Z,27.20
2017-08-27T13:49:50.802Z,27.20
2017-08-27T13:52:19.192Z,27.30
2017-08-27T13:54:46.691Z,27.10
2017-08-27T13:57:14.376Z,26.80
2017-08-27T13:59:41.875Z,26.40
2017-08-27T14:02:09.880Z,26.20
2017-08-27T14:04:37.576Z,26.00
2017-08-27T14:07:05.123Z,26.00
2017-08-27T14:09:32.666Z,26.00
2017-08-27T14:12:00.226Z,26.30
2017-08-27T14:14:27.873Z,26.30
2017-08-27T14:16:55.385Z,26.30
2017-08-27T14:19:23.879Z,26.30
2017-08-27T14:21:51.427Z,26.40
2017-08-27T14:24:18.927Z,26.50
2017-08-27T14:26:46.471Z,26.40
2017-08-27T14:29:13.975Z,26.20
2017-08-27T14:31:42.084Z,26.10
2017-08-27T14:34:10.372Z,26.30
2017-08-27T14:36:37.919Z,26.40
2017-08-27T14:39:05.500Z,26.70
2017-08-27T14:41:33.004Z,26.40
2017-08-27T14:44:00.504Z,26.10
2017-08-27T14:46:28.087Z,26.10
2017-08-27T14:48:55.609Z,26.00
2017-08-27T14:51:24.096Z,26.10
2017-08-27T14:53:51.676Z,26.10
2017-08-27T14:56:19.209Z,26.10
2017-08-27T14:58:50.048Z,26.40
2017-08-27T15:01:18.365Z,26.30
2017-08-27T15:03:45.957Z,26.10
2017-08-27T15:06:14.226Z,26.00
2017-08-27T15:08:42.741Z,26.00
2017-08-27T15:11:10.243Z,25.80
2017-08-27T15:13:38.084Z,25.70
2017-08-27T15:16:05.661Z,25.40
2017-08-27T15:18:33.328Z,25.40
2017-08-27T15:21:00.831Z,25.20
2017-08-27T15:23:28.377Z,25.30
2017-08-27T15:25:55.915Z,25.50
2017-08-27T15:28:23.475Z,25.70
2017-08-27T15:30:52.510Z,25.60
2017-08-27T15:33:20.024Z,25.60
2017-08-27T15:35:47.772Z,25.60
2017-08-27T15:38:16.204Z,25.70
2017-08-27T15:40:43.739Z,25.80
2017-08-27T15:43:11.252Z,25.70
2017-08-27T15:45:39.237Z,25.80
2017-08-27T15:48:06.758Z,26.10
2017-08-27T15:50:34.272Z,26.20
2017-08-27T15:53:02.081Z,26.50
2017-08-27T15:55:30.237Z,26.80
2017-08-27T15:57:58.507Z,27.20
2017-08-27T16:00:26.784Z,27.30
2017-08-27T16:02:54.674Z,27.30
2017-08-27T16:05:22.188Z,27.20
2017-08-27T16:07:49.707Z,26.90
2017-08-27T16:10:17.469Z,26.70
2017-08-27T16:12:45.115Z,26.60
2017-08-27T16:15:16.310Z,26.50
2017-08-27T16:17:44.059Z,26.40
2017-08-27T16:20:11.762Z,26.30
2017-08-27T16:22:39.267Z,26.20
2017-08-27T16:25:06.767Z,26.00
2017-08-27T16:27:35.092Z,25.50
2017-08-27T16:30:06.850Z,25.50
2017-08-27T16:32:34.393Z,25.40
2017-08-27T16:35:03.663Z,25.00
2017-08-27T16:37:31.380Z,25.00
2017-08-27T16:39:58.927Z,24.90
2017-08-27T16:42:26.431Z,24.80
2017-08-27T16:44:53.931Z,24.80
2017-08-27T16:47:33.277Z,24.80
2017-08-27T16:50:00.788Z,24.70
2017-08-27T16:52:28.289Z,24.80
2017-08-27T16:54:55.847Z,24.80
2017-08-27T16:57:24.624Z,24.60
2017-08-27T16:59:52.137Z,24.60
2017-08-27T17:02:20.016Z,24.60
2017-08-27T17:04:48.363Z,24.40
2017-08-27T17:07:15.870Z,24.30
2017-08-27T17:09:44.147Z,24.00
2017-08-27T17:12:11.652Z,24.00
2017-08-27T17:14:39.194Z,23.90
2017-08-27T17:17:07.279Z,23.80
2017-08-27T17:19:34.842Z,23.80
2017-08-27T17:22:02.366Z,23.70
2017-08-27T17:24:29.879Z,23.60
2017-08-27T17:26:57.453Z,23.50
2017-08-27T17:29:24.996Z,23.50
2017-08-27T17:31:52.643Z,23.50
2017-08-27T17:34:20.177Z,23.60
2017-08-27T17:36:47.948Z,23.80
2017-08-27T17:39:15.623Z,24.00
2017-08-27T17:41:43.167Z,24.20
2017-08-27T17:44:10.684Z,24.40
2017-08-27T17:46:42.384Z,24.40
2017-08-27T17:49:10.599Z,24.40
2017-08-27T17:51:38.178Z,24.10
2017-08-27T17:54:05.812Z,23.90
2017-08-27T17:56:33.322Z,23.60
2017-08-27T17:59:00.866Z,23.40
2017-08-27T18:01:32.267Z,23.30
2017-08-27T18:04:00.164Z,23.10
2017-08-27T18:06:27.743Z,22.90
2017-08-27T18:08:55.261Z,22.70
2017-08-27T18:11:22.816Z,22.50
2017-08-27T18:13:50.359Z,22.40
2017-08-27T18:16:18.523Z,22.20
2017-08-27T18:18:47.154Z,22.10
2017-08-27T18:21:14.743Z,21.90
2017-08-27T18:23:43.943Z,21.60
2017-08-27T18:26:11.741Z,21.60
2017-08-27T18:28:39.251Z,21.50
2017-08-27T18:31:06.812Z,21.50
2017-08-27T18:33:34.487Z,21.50
2017-08-27T18:36:03.348Z,21.50
2017-08-27T18:38:30.903Z,21.40
2017-08-27T18:40:58.611Z,21.40
2017-08-27T18:43:26.164Z,21.40
2017-08-27T18:45:53.684Z,21.30
2017-08-27T18:48:22.139Z,21.20
2017-08-27T18:50:50.346Z,21.10
2017-08-27T18:53:18.791Z,20.90
2017-08-27T18:55:47.607Z,20.80
2017-08-27T18:58:15.152Z,20.80
2017-08-27T19:00:42.722Z,20.70
2017-08-27T19:03:13.409Z,20.70
2017-08-27T19:05:43.688Z,20.70
2017-08-27T19:08:12.855Z,20.70
2017-08-27T19:10:40.763Z,20.70
2017-08-27T19:13:09.137Z,20.70
2017-08-27T19:15:37.651Z,20.70
2017-08-27T19:18:08.904Z,20.60
2017-08-27T19:20:37.636Z,20.70
2017-08-27T19:23:05.753Z,20.70
2017-08-27T19:25:33.688Z,20.80
2017-08-27T19:28:03.487Z,20.80
2017-08-27T19:30:32.075Z,20.80
2017-08-27T19:33:00.081Z,20.80
2017-08-27T19:35:27.785Z,20.70
2017-08-27T19:37:55.297Z,20.60
2017-08-27T19:40:22.799Z,20.70
2017-08-27T19:42:50.549Z,20.60
2017-08-27T19:45:18.392Z,20.60
2017-08-27T19:47:46.100Z,20.60
2017-08-27T19:50:14.866Z,20.50
2017-08-27T19:52:43.083Z,20.40
2017-08-27T19:55:10.599Z,20.30
2017-08-27T19:57:38.933Z,20.30
2017-08-27T20:00:06.675Z,20.30
2017-08-27T20:02:34.241Z,20.20
2017-08-27T20:05:01.792Z,20.20
2017-08-27T20:07:29.667Z,20.20
2017-08-27T20:09:57.232Z,20.20
2017-08-27T20:12:24.789Z,20.10
2017-08-27T20:14:52.397Z,20.00
2017-08-27T20:17:19.976Z,20.00
2017-08-27T20:19:48.411Z,20.00
2017-08-27T20:22:19.998Z,19.90
2017-08-27T20:24:47.571Z,19.90
2017-08-27T20:27:15.081Z,19.90
2017-08-27T20:29:44.293Z,19.80
2017-08-27T20:32:11.808Z,19.80
2017-08-27T20:34:41.577Z,19.80
2017-08-27T20:37:09.085Z,19.90
2017-08-27T20:39:36.667Z,19.90
2017-08-27T20:42:04.179Z,20.00
2017-08-27T20:44:32.588Z,20.00
2017-08-27T20:47:00.163Z,20.00
2017-08-27T20:49:28.440Z,20.10
2017-08-27T20:51:56.543Z,20.10
2017-08-27T20:54:24.318Z,20.10
2017-08-27T20:56:52.360Z,20.10
2017-08-27T20:59:20.807Z,20.10
2017-08-27T21:01:48.344Z,20.10
2017-08-27T21:04:16.915Z,20.10
2017-08-27T21:06:44.511Z,20.20
2017-08-27T21:09:12.014Z,20.20
2017-08-27T21:11:39.547Z,20.20
2017-08-27T21:14:07.097Z,20.10
2017-08-27T21:16:34.611Z,20.20
2017-08-27T21:19:02.144Z,20.20
2017-08-27T21:21:31.557Z,20.20
2017-08-27T21:24:03.374Z,20.20
2017-08-27T21:26:31.391Z,20.20
2017-08-27T21:28:58.948Z,20.30
2017-08-27T21:31:26.455Z,20.20
2017-08-27T21:33:54.013Z,20.20
2017-08-27T21:36:24.611Z,20.20
2017-08-27T21:38:52.120Z,20.20
2017-08-27T21:41:21.324Z,20.10
2017-08-27T21:43:48.907Z,20.10
2017-08-27T21:46:16.848Z,20.10
2017-08-27T21:48:45.845Z,20.00
2017-08-27T21:51:14.553Z,20.00
2017-08-27T21:53:42.096Z,20.10
2017-08-27T21:56:10.110Z,20.10
2017-08-27T21:58:37.785Z,20.10
2017-08-27T22:01:05.413Z,20.10
2017-08-27T22:03:33.007Z,20.00
2017-08-27T22:06:00.511Z,20.00
2017-08-27T22:08:28.057Z,19.90
2017-08-27T22:10:55.739Z,19.90
2017-08-27T22:13:23.427Z,19.90
2017-08-27T22:15:50.943Z,19.80
2017-08-27T22:18:18.680Z,19.80
2017-08-27T22:20:46.273Z,19.80
2017-08-27T22:23:13.956Z,19.70
2017-08-27T22:25:42.437Z,19.70
2017-08-27T22:28:10.358Z,19.70
2017-08-27T22:30:38.211Z,19.70
2017-08-27T22:33:07.388Z,19.70
2017-08-27T22:35:34.908Z,19.70
2017-08-27T22:38:04.288Z,19.70
2017-08-27T22:40:32.568Z,19.70
2017-08-27T22:43:00.105Z,19.60
2017-08-27T22:45:27.638Z,19.60
2017-08-27T22:47:55.151Z,19.60
2017-08-27T22:50:22.709Z,19.70
2017-08-27T22:52:55.018Z,19.60
2017-08-27T22:55:26.440Z,19.50
2017-08-27T22:57:53.961Z,19.50
2017-08-27T23:00:22.405Z,19.30
2017-08-27T23:02:50.416Z,19.30
2017-08-27T23:05:17.967Z,19.30
2017-08-27T23:07:45.712Z,19.20
2017-08-27T23:10:13.228Z,19.10
2017-08-27T23:12:41.829Z,19.00
2017-08-27T23:15:09.370Z,19.00
2017-08-27T23:17:36.891Z,19.00
2017-08-27T23:20:05.333Z,19.00
2017-08-27T23:22:32.871Z,19.20
2017-08-27T23:25:00.370Z,19.20
2017-08-27T23:27:27.887Z,19.20
2017-08-27T23:29:55.389Z,19.30
2017-08-27T23:32:22.910Z,19.30
2017-08-27T23:34:50.452Z,19.30
2017-08-27T23:37:21.887Z,19.20
2017-08-27T23:39:53.096Z,19.20
2017-08-27T23:42:20.620Z,19.20
2017-08-27T23:44:48.132Z,19.20
2017-08-27T23:47:16.496Z,19.20
2017-08-27T23:49:44.163Z,19.10
2017-08-27T23:52:12.530Z,19.10
2017-08-27T23:54:43.983Z,19.20
2017-08-27T23:57:11.505Z,19.10
2017-08-27T23:59:39.069Z,19.10
